< < Back
Terminal Aerodrome Forecast


Current Version              Previous Versions:   1  2  3  4  5  6  7  8  9  

Terminal Aerodrome Forecast

016
FTUS44 KMOB 281124
TAFPNS
TAF
KPNS 281124Z 2812/2912 VRB03KT P6SM FEW250
     FM281700 21008KT P6SM VCTS SCT040CB SCT250
     FM290300 20004KT P6SM SCT250=

Latest METAR

541
SAUS70 KWBC 282000 RRE
MTRPNS
METAR KPNS 281953Z 18009G16KT 10SM FEW030 33/23 A3002 RMK AO2 SLP166
T03280228


USA.gov is the U.S. government's official web portal to all federal, state and local government web resources and services.